sensor_id;sensor_type;location;lat;lon;timestamp;temperature;humidity
37782;DHT22;23621;50.878;4.584;2023-05-27T00:01:17;22.00;51.60
37782;DHT22;23621;50.878;4.584;2023-05-27T00:04:05;22.00;51.90
37782;DHT22;23621;50.878;4.584;2023-05-27T00:06:52;21.90;51.80
37782;DHT22;23621;50.878;4.584;2023-05-27T00:09:40;21.80;51.90
37782;DHT22;23621;50.878;4.584;2023-05-27T00:12:27;21.80;52.00
37782;DHT22;23621;50.878;4.584;2023-05-27T00:15:15;21.80;51.90
37782;DHT22;23621;50.878;4.584;2023-05-27T00:18:04;21.80;52.10
37782;DHT22;23621;50.878;4.584;2023-05-27T00:20:52;21.70;52.20
37782;DHT22;23621;50.878;4.584;2023-05-27T00:23:44;21.70;52.30
37782;DHT22;23621;50.878;4.584;2023-05-27T00:26:31;21.60;52.20
37782;DHT22;23621;50.878;4.584;2023-05-27T00:29:19;21.60;52.30
37782;DHT22;23621;50.878;4.584;2023-05-27T00:32:06;21.60;52.20
37782;DHT22;23621;50.878;4.584;2023-05-27T00:34:54;21.50;52.30
37782;DHT22;23621;50.878;4.584;2023-05-27T00:37:41;21.50;52.40
37782;DHT22;23621;50.878;4.584;2023-05-27T00:40:29;21.40;52.40
37782;DHT22;23621;50.878;4.584;2023-05-27T00:43:18;21.40;52.50
37782;DHT22;23621;50.878;4.584;2023-05-27T00:46:05;21.30;52.60
37782;DHT22;23621;50.878;4.584;2023-05-27T00:48:53;21.30;52.90
37782;DHT22;23621;50.878;4.584;2023-05-27T00:51:41;21.20;52.90
37782;DHT22;23621;50.878;4.584;2023-05-27T00:54:30;21.10;52.80
37782;DHT22;23621;50.878;4.584;2023-05-27T00:57:19;21.20;52.90
37782;DHT22;23621;50.878;4.584;2023-05-27T01:00:07;21.10;53.00
37782;DHT22;23621;50.878;4.584;2023-05-27T01:02:57;21.10;53.30
37782;DHT22;23621;50.878;4.584;2023-05-27T01:05:45;21.00;53.30
37782;DHT22;23621;50.878;4.584;2023-05-27T01:09:28;21.00;53.30
37782;DHT22;23621;50.878;4.584;2023-05-27T01:12:44;20.90;53.50
37782;DHT22;23621;50.878;4.584;2023-05-27T01:15:22;20.90;53.80
37782;DHT22;23621;50.878;4.584;2023-05-27T01:18:12;20.80;53.50
37782;DHT22;23621;50.878;4.584;2023-05-27T01:21:06;20.70;53.50
37782;DHT22;23621;50.878;4.584;2023-05-27T01:24:03;20.70;53.50
37782;DHT22;23621;50.878;4.584;2023-05-27T01:26:50;20.70;53.60
37782;DHT22;23621;50.878;4.584;2023-05-27T01:29:41;20.60;53.60
37782;DHT22;23621;50.878;4.584;2023-05-27T01:32:45;20.60;53.90
37782;DHT22;23621;50.878;4.584;2023-05-27T01:35:45;20.50;54.10
37782;DHT22;23621;50.878;4.584;2023-05-27T01:38:34;20.50;54.80
37782;DHT22;23621;50.878;4.584;2023-05-27T01:41:24;20.40;54.10
37782;DHT22;23621;50.878;4.584;2023-05-27T01:44:12;20.40;54.20
37782;DHT22;23621;50.878;4.584;2023-05-27T01:47:02;20.40;54.20
37782;DHT22;23621;50.878;4.584;2023-05-27T01:49:50;20.30;54.20
37782;DHT22;23621;50.878;4.584;2023-05-27T01:52:37;20.30;54.30
37782;DHT22;23621;50.878;4.584;2023-05-27T01:55:24;20.20;54.40
37782;DHT22;23621;50.878;4.584;2023-05-27T01:58:12;20.20;54.50
37782;DHT22;23621;50.878;4.584;2023-05-27T02:00:59;20.10;54.70
37782;DHT22;23621;50.878;4.584;2023-05-27T02:03:47;20.00;54.80
37782;DHT22;23621;50.878;4.584;2023-05-27T02:06:35;20.00;54.90
37782;DHT22;23621;50.878;4.584;2023-05-27T02:09:23;20.00;55.00
37782;DHT22;23621;50.878;4.584;2023-05-27T02:12:10;19.90;55.10
37782;DHT22;23621;50.878;4.584;2023-05-27T02:14:57;19.90;55.20
37782;DHT22;23621;50.878;4.584;2023-05-27T02:17:45;19.80;55.30
37782;DHT22;23621;50.878;4.584;2023-05-27T02:20:33;19.80;55.40
37782;DHT22;23621;50.878;4.584;2023-05-27T02:23:21;19.70;55.50
37782;DHT22;23621;50.878;4.584;2023-05-27T02:26:08;19.60;55.60
37782;DHT22;23621;50.878;4.584;2023-05-27T02:28:55;19.60;55.70
37782;DHT22;23621;50.878;4.584;2023-05-27T02:31:43;19.60;55.80
37782;DHT22;23621;50.878;4.584;2023-05-27T02:34:30;19.50;55.80
37782;DHT22;23621;50.878;4.584;2023-05-27T02:37:17;19.40;55.90
37782;DHT22;23621;50.878;4.584;2023-05-27T02:40:05;19.40;56.00
37782;DHT22;23621;50.878;4.584;2023-05-27T02:42:53;19.40;56.00
37782;DHT22;23621;50.878;4.584;2023-05-27T02:45:40;19.30;55.90
37782;DHT22;23621;50.878;4.584;2023-05-27T02:48:27;19.30;55.80
37782;DHT22;23621;50.878;4.584;2023-05-27T02:51:15;19.30;55.90
37782;DHT22;23621;50.878;4.584;2023-05-27T02:54:02;19.30;55.90
37782;DHT22;23621;50.878;4.584;2023-05-27T02:56:49;19.30;56.00
37782;DHT22;23621;50.878;4.584;2023-05-27T02:59:37;19.30;56.00
37782;DHT22;23621;50.878;4.584;2023-05-27T03:02:24;19.30;56.00
37782;DHT22;23621;50.878;4.584;2023-05-27T03:05:12;19.20;56.00
37782;DHT22;23621;50.878;4.584;2023-05-27T03:07:59;19.20;55.90
37782;DHT22;23621;50.878;4.584;2023-05-27T03:10:47;19.20;56.10
37782;DHT22;23621;50.878;4.584;2023-05-27T03:13:34;19.20;56.30
37782;DHT22;23621;50.878;4.584;2023-05-27T03:16:22;19.10;56.30
37782;DHT22;23621;50.878;4.584;2023-05-27T03:19:10;19.10;56.40
37782;DHT22;23621;50.878;4.584;2023-05-27T03:21:57;19.00;56.20
37782;DHT22;23621;50.878;4.584;2023-05-27T03:24:44;19.00;56.40
37782;DHT22;23621;50.878;4.584;2023-05-27T03:27:32;18.90;56.40
37782;DHT22;23621;50.878;4.584;2023-05-27T03:30:19;18.80;56.60
37782;DHT22;23621;50.878;4.584;2023-05-27T03:33:06;18.80;56.70
37782;DHT22;23621;50.878;4.584;2023-05-27T03:35:54;18.80;56.90
37782;DHT22;23621;50.878;4.584;2023-05-27T03:38:43;18.70;56.90
37782;DHT22;23621;50.878;4.584;2023-05-27T03:41:31;18.60;57.00
37782;DHT22;23621;50.878;4.584;2023-05-27T03:44:18;18.60;57.00
37782;DHT22;23621;50.878;4.584;2023-05-27T03:47:06;18.60;57.00
37782;DHT22;23621;50.878;4.584;2023-05-27T03:49:53;18.50;57.10
37782;DHT22;23621;50.878;4.584;2023-05-27T03:52:40;18.50;57.10
37782;DHT22;23621;50.878;4.584;2023-05-27T03:55:27;18.40;57.10
37782;DHT22;23621;50.878;4.584;2023-05-27T03:58:15;18.30;57.30
37782;DHT22;23621;50.878;4.584;2023-05-27T04:01:03;18.30;57.30
37782;DHT22;23621;50.878;4.584;2023-05-27T04:03:50;18.30;57.50
37782;DHT22;23621;50.878;4.584;2023-05-27T04:06:38;18.20;57.40
37782;DHT22;23621;50.878;4.584;2023-05-27T04:09:25;18.20;57.50
37782;DHT22;23621;50.878;4.584;2023-05-27T04:12:12;18.20;57.60
37782;DHT22;23621;50.878;4.584;2023-05-27T04:15:00;18.20;57.60
37782;DHT22;23621;50.878;4.584;2023-05-27T04:17:47;18.20;57.70
37782;DHT22;23621;50.878;4.584;2023-05-27T04:20:39;18.20;57.90
37782;DHT22;23621;50.878;4.584;2023-05-27T04:23:27;18.10;58.00
37782;DHT22;23621;50.878;4.584;2023-05-27T04:26:15;18.10;58.10
37782;DHT22;23621;50.878;4.584;2023-05-27T04:29:02;18.10;58.10
37782;DHT22;23621;50.878;4.584;2023-05-27T04:31:51;18.10;58.20
37782;DHT22;23621;50.878;4.584;2023-05-27T04:34:38;18.10;58.20
37782;DHT22;23621;50.878;4.584;2023-05-27T04:37:31;18.10;58.20
37782;DHT22;23621;50.878;4.584;2023-05-27T04:40:19;18.10;58.10
37782;DHT22;23621;50.878;4.584;2023-05-27T04:43:06;18.20;57.90
37782;DHT22;23621;50.878;4.584;2023-05-27T04:46:01;18.20;57.90
37782;DHT22;23621;50.878;4.584;2023-05-27T04:48:49;18.20;58.00
37782;DHT22;23621;50.878;4.584;2023-05-27T04:51:41;18.20;58.10
37782;DHT22;23621;50.878;4.584;2023-05-27T04:54:28;18.20;58.20
37782;DHT22;23621;50.878;4.584;2023-05-27T04:57:16;18.20;58.10
37782;DHT22;23621;50.878;4.584;2023-05-27T05:00:06;18.30;58.30
37782;DHT22;23621;50.878;4.584;2023-05-27T05:03:14;18.30;58.20
37782;DHT22;23621;50.878;4.584;2023-05-27T05:06:08;18.40;58.10
37782;DHT22;23621;50.878;4.584;2023-05-27T05:08:55;18.40;58.20
37782;DHT22;23621;50.878;4.584;2023-05-27T05:11:43;18.40;58.20
37782;DHT22;23621;50.878;4.584;2023-05-27T05:14:30;18.50;58.20
37782;DHT22;23621;50.878;4.584;2023-05-27T05:17:18;18.50;58.10
37782;DHT22;23621;50.878;4.584;2023-05-27T05:20:06;18.50;58.10
37782;DHT22;23621;50.878;4.584;2023-05-27T05:22:53;18.50;58.10
37782;DHT22;23621;50.878;4.584;2023-05-27T05:25:40;18.50;58.10
37782;DHT22;23621;50.878;4.584;2023-05-27T05:28:28;18.50;58.30
37782;DHT22;23621;50.878;4.584;2023-05-27T05:31:15;18.50;58.30
37782;DHT22;23621;50.878;4.584;2023-05-27T05:34:03;18.50;58.30
37782;DHT22;23621;50.878;4.584;2023-05-27T05:36:50;18.60;58.40
37782;DHT22;23621;50.878;4.584;2023-05-27T05:39:37;18.60;58.30
37782;DHT22;23621;50.878;4.584;2023-05-27T05:42:24;18.70;58.40
37782;DHT22;23621;50.878;4.584;2023-05-27T05:45:12;18.60;58.40
37782;DHT22;23621;50.878;4.584;2023-05-27T05:47:59;18.60;58.40
37782;DHT22;23621;50.878;4.584;2023-05-27T05:50:46;18.70;58.50
37782;DHT22;23621;50.878;4.584;2023-05-27T05:53:34;18.70;58.60
37782;DHT22;23621;50.878;4.584;2023-05-27T05:56:22;18.70;58.70
37782;DHT22;23621;50.878;4.584;2023-05-27T05:59:09;18.70;58.70
37782;DHT22;23621;50.878;4.584;2023-05-27T06:01:57;18.70;58.80
37782;DHT22;23621;50.878;4.584;2023-05-27T06:04:44;18.70;58.80
37782;DHT22;23621;50.878;4.584;2023-05-27T06:07:31;18.70;58.80
37782;DHT22;23621;50.878;4.584;2023-05-27T06:10:19;18.80;58.90
37782;DHT22;23621;50.878;4.584;2023-05-27T06:13:07;18.80;58.90
37782;DHT22;23621;50.878;4.584;2023-05-27T06:15:58;18.80;58.90
37782;DHT22;23621;50.878;4.584;2023-05-27T06:18:45;18.90;59.10
37782;DHT22;23621;50.878;4.584;2023-05-27T06:21:33;18.90;59.10
37782;DHT22;23621;50.878;4.584;2023-05-27T06:24:20;19.00;59.30
37782;DHT22;23621;50.878;4.584;2023-05-27T06:27:08;19.00;59.40
37782;DHT22;23621;50.878;4.584;2023-05-27T06:29:55;19.00;59.40
37782;DHT22;23621;50.878;4.584;2023-05-27T06:32:43;19.00;59.40
37782;DHT22;23621;50.878;4.584;2023-05-27T06:35:31;19.10;59.40
37782;DHT22;23621;50.878;4.584;2023-05-27T06:38:18;19.10;59.20
37782;DHT22;23621;50.878;4.584;2023-05-27T06:41:05;19.10;59.20
37782;DHT22;23621;50.878;4.584;2023-05-27T06:43:53;19.20;59.10
37782;DHT22;23621;50.878;4.584;2023-05-27T06:46:41;19.20;58.90
37782;DHT22;23621;50.878;4.584;2023-05-27T06:49:28;19.30;58.90
37782;DHT22;23621;50.878;4.584;2023-05-27T06:52:16;19.30;58.90
37782;DHT22;23621;50.878;4.584;2023-05-27T06:55:03;19.40;59.00
37782;DHT22;23621;50.878;4.584;2023-05-27T06:57:51;19.40;59.10
37782;DHT22;23621;50.878;4.584;2023-05-27T07:00:38;19.50;59.30
37782;DHT22;23621;50.878;4.584;2023-05-27T07:03:26;19.50;59.10
37782;DHT22;23621;50.878;4.584;2023-05-27T07:06:13;19.50;58.90
37782;DHT22;23621;50.878;4.584;2023-05-27T07:09:00;19.60;59.00
37782;DHT22;23621;50.878;4.584;2023-05-27T07:11:48;19.60;59.00
37782;DHT22;23621;50.878;4.584;2023-05-27T07:14:35;19.60;59.10
37782;DHT22;23621;50.878;4.584;2023-05-27T07:17:23;19.70;59.00
37782;DHT22;23621;50.878;4.584;2023-05-27T07:20:11;19.70;58.90
37782;DHT22;23621;50.878;4.584;2023-05-27T07:22:59;19.80;58.80
37782;DHT22;23621;50.878;4.584;2023-05-27T07:25:46;19.90;58.80
37782;DHT22;23621;50.878;4.584;2023-05-27T07:28:33;20.00;58.90
37782;DHT22;23621;50.878;4.584;2023-05-27T07:31:21;20.00;59.10
37782;DHT22;23621;50.878;4.584;2023-05-27T07:34:08;20.10;59.00
37782;DHT22;23621;50.878;4.584;2023-05-27T07:36:55;20.20;58.80
37782;DHT22;23621;50.878;4.584;2023-05-27T07:39:43;20.20;58.60
37782;DHT22;23621;50.878;4.584;2023-05-27T07:42:30;20.30;58.60
37782;DHT22;23621;50.878;4.584;2023-05-27T07:45:20;20.30;58.60
37782;DHT22;23621;50.878;4.584;2023-05-27T07:48:09;20.40;58.70
37782;DHT22;23621;50.878;4.584;2023-05-27T07:50:57;20.40;58.60
37782;DHT22;23621;50.878;4.584;2023-05-27T07:53:45;20.50;58.50
37782;DHT22;23621;50.878;4.584;2023-05-27T07:56:32;20.60;58.50
37782;DHT22;23621;50.878;4.584;2023-05-27T07:59:21;20.60;58.80
37782;DHT22;23621;50.878;4.584;2023-05-27T08:02:09;20.70;58.80
37782;DHT22;23621;50.878;4.584;2023-05-27T08:04:56;20.80;58.60
37782;DHT22;23621;50.878;4.584;2023-05-27T08:07:44;20.80;58.80
37782;DHT22;23621;50.878;4.584;2023-05-27T08:10:32;20.90;58.70
37782;DHT22;23621;50.878;4.584;2023-05-27T08:13:19;20.90;58.60
37782;DHT22;23621;50.878;4.584;2023-05-27T08:16:07;20.90;58.60
37782;DHT22;23621;50.878;4.584;2023-05-27T08:18:54;21.00;58.60
37782;DHT22;23621;50.878;4.584;2023-05-27T08:21:41;21.00;58.60
37782;DHT22;23621;50.878;4.584;2023-05-27T08:24:29;21.10;58.80
37782;DHT22;23621;50.878;4.584;2023-05-27T08:27:18;21.10;58.60
37782;DHT22;23621;50.878;4.584;2023-05-27T08:30:06;21.20;58.40
37782;DHT22;23621;50.878;4.584;2023-05-27T08:32:56;21.30;58.50
37782;DHT22;23621;50.878;4.584;2023-05-27T08:35:43;21.30;58.50
37782;DHT22;23621;50.878;4.584;2023-05-27T08:38:31;21.40;58.50
37782;DHT22;23621;50.878;4.584;2023-05-27T08:41:18;21.40;58.30
37782;DHT22;23621;50.878;4.584;2023-05-27T08:44:06;21.40;58.20
37782;DHT22;23621;50.878;4.584;2023-05-27T08:47:07;21.50;58.10
37782;DHT22;23621;50.878;4.584;2023-05-27T08:49:54;21.50;57.90
37782;DHT22;23621;50.878;4.584;2023-05-27T08:52:51;21.50;57.80
37782;DHT22;23621;50.878;4.584;2023-05-27T08:55:40;21.60;57.70
37782;DHT22;23621;50.878;4.584;2023-05-27T08:58:29;21.70;58.00
37782;DHT22;23621;50.878;4.584;2023-05-27T09:01:18;21.70;57.70
37782;DHT22;23621;50.878;4.584;2023-05-27T09:04:06;21.80;57.50
37782;DHT22;23621;50.878;4.584;2023-05-27T09:06:53;21.90;57.50
37782;DHT22;23621;50.878;4.584;2023-05-27T09:09:41;21.90;57.40
37782;DHT22;23621;50.878;4.584;2023-05-27T09:12:29;22.00;57.40
37782;DHT22;23621;50.878;4.584;2023-05-27T09:15:16;22.00;57.40
37782;DHT22;23621;50.878;4.584;2023-05-27T09:18:05;22.10;57.60
37782;DHT22;23621;50.878;4.584;2023-05-27T09:20:54;22.10;57.70
37782;DHT22;23621;50.878;4.584;2023-05-27T09:23:42;22.10;57.90
37782;DHT22;23621;50.878;4.584;2023-05-27T09:26:30;22.20;57.50
37782;DHT22;23621;50.878;4.584;2023-05-27T09:29:18;22.30;57.70
37782;DHT22;23621;50.878;4.584;2023-05-27T09:32:06;22.40;58.00
37782;DHT22;23621;50.878;4.584;2023-05-27T09:34:55;22.50;58.20
37782;DHT22;23621;50.878;4.584;2023-05-27T09:37:43;22.50;57.80
37782;DHT22;23621;50.878;4.584;2023-05-27T09:40:35;22.50;57.80
37782;DHT22;23621;50.878;4.584;2023-05-27T09:43:23;22.60;57.40
37782;DHT22;23621;50.878;4.584;2023-05-27T09:46:11;22.70;57.10
37782;DHT22;23621;50.878;4.584;2023-05-27T09:49:00;22.70;57.40
37782;DHT22;23621;50.878;4.584;2023-05-27T09:51:50;22.80;57.60
37782;DHT22;23621;50.878;4.584;2023-05-27T09:54:38;22.90;57.50
37782;DHT22;23621;50.878;4.584;2023-05-27T09:57:30;23.00;57.70
37782;DHT22;23621;50.878;4.584;2023-05-27T10:00:20;23.00;57.90
37782;DHT22;23621;50.878;4.584;2023-05-27T10:03:07;23.00;57.80
37782;DHT22;23621;50.878;4.584;2023-05-27T10:05:59;23.10;58.00
37782;DHT22;23621;50.878;4.584;2023-05-27T10:08:47;23.10;57.70
37782;DHT22;23621;50.878;4.584;2023-05-27T10:11:35;23.20;57.20
37782;DHT22;23621;50.878;4.584;2023-05-27T10:14:24;23.30;57.30
37782;DHT22;23621;50.878;4.584;2023-05-27T10:17:12;23.30;56.80
37782;DHT22;23621;50.878;4.584;2023-05-27T10:20:01;23.40;57.00
37782;DHT22;23621;50.878;4.584;2023-05-27T10:22:48;23.40;57.10
37782;DHT22;23621;50.878;4.584;2023-05-27T10:25:36;23.50;57.20
37782;DHT22;23621;50.878;4.584;2023-05-27T10:28:37;23.60;56.70
37782;DHT22;23621;50.878;4.584;2023-05-27T10:31:29;23.60;56.40
37782;DHT22;23621;50.878;4.584;2023-05-27T10:34:18;23.70;57.00
37782;DHT22;23621;50.878;4.584;2023-05-27T10:37:06;23.70;57.20
37782;DHT22;23621;50.878;4.584;2023-05-27T10:39:55;23.80;57.00
37782;DHT22;23621;50.878;4.584;2023-05-27T10:42:43;23.90;56.50
37782;DHT22;23621;50.878;4.584;2023-05-27T10:45:33;24.00;56.40
37782;DHT22;23621;50.878;4.584;2023-05-27T10:48:27;24.10;56.00
37782;DHT22;23621;50.878;4.584;2023-05-27T10:51:17;24.10;56.40
37782;DHT22;23621;50.878;4.584;2023-05-27T10:54:05;24.20;56.20
37782;DHT22;23621;50.878;4.584;2023-05-27T10:56:57;24.30;55.90
37782;DHT22;23621;50.878;4.584;2023-05-27T10:59:53;24.30;55.60
37782;DHT22;23621;50.878;4.584;2023-05-27T11:02:44;24.40;55.10
37782;DHT22;23621;50.878;4.584;2023-05-27T11:05:32;24.40;55.40
37782;DHT22;23621;50.878;4.584;2023-05-27T11:08:20;24.50;55.20
37782;DHT22;23621;50.878;4.584;2023-05-27T11:11:10;24.60;55.40
37782;DHT22;23621;50.878;4.584;2023-05-27T11:13:59;24.60;54.70
37782;DHT22;23621;50.878;4.584;2023-05-27T11:16:50;24.70;53.90
37782;DHT22;23621;50.878;4.584;2023-05-27T11:19:40;24.80;53.50
37782;DHT22;23621;50.878;4.584;2023-05-27T11:22:27;24.80;53.10
37782;DHT22;23621;50.878;4.584;2023-05-27T11:25:15;24.90;52.90
37782;DHT22;23621;50.878;4.584;2023-05-27T11:28:02;25.00;53.00
37782;DHT22;23621;50.878;4.584;2023-05-27T11:30:50;25.00;52.90
37782;DHT22;23621;50.878;4.584;2023-05-27T11:33:44;25.00;52.50
37782;DHT22;23621;50.878;4.584;2023-05-27T11:36:32;25.10;52.40
37782;DHT22;23621;50.878;4.584;2023-05-27T11:39:20;25.20;52.60
37782;DHT22;23621;50.878;4.584;2023-05-27T11:42:08;25.20;52.50
37782;DHT22;23621;50.878;4.584;2023-05-27T11:44:55;25.20;52.40
37782;DHT22;23621;50.878;4.584;2023-05-27T11:47:44;25.30;51.70
37782;DHT22;23621;50.878;4.584;2023-05-27T11:50:34;25.40;52.70
37782;DHT22;23621;50.878;4.584;2023-05-27T11:53:22;25.50;51.90
37782;DHT22;23621;50.878;4.584;2023-05-27T11:56:10;25.50;51.50
37782;DHT22;23621;50.878;4.584;2023-05-27T11:58:58;25.60;51.50
37782;DHT22;23621;50.878;4.584;2023-05-27T12:01:46;25.60;51.50
37782;DHT22;23621;50.878;4.584;2023-05-27T12:04:33;25.70;51.50
37782;DHT22;23621;50.878;4.584;2023-05-27T12:07:20;25.70;51.30
37782;DHT22;23621;50.878;4.584;2023-05-27T12:10:08;25.80;50.80
37782;DHT22;23621;50.878;4.584;2023-05-27T12:13:05;25.80;51.20
37782;DHT22;23621;50.878;4.584;2023-05-27T12:15:52;25.80;51.20
37782;DHT22;23621;50.878;4.584;2023-05-27T12:18:40;25.90;51.10
37782;DHT22;23621;50.878;4.584;2023-05-27T12:21:29;25.90;51.10
37782;DHT22;23621;50.878;4.584;2023-05-27T12:24:16;26.00;50.60
37782;DHT22;23621;50.878;4.584;2023-05-27T12:27:03;26.00;49.80
37782;DHT22;23621;50.878;4.584;2023-05-27T12:29:51;26.10;49.90
37782;DHT22;23621;50.878;4.584;2023-05-27T12:32:39;26.10;49.90
37782;DHT22;23621;50.878;4.584;2023-05-27T12:35:26;26.20;49.70
37782;DHT22;23621;50.878;4.584;2023-05-27T12:38:14;26.20;49.50
37782;DHT22;23621;50.878;4.584;2023-05-27T12:41:01;26.20;49.00
37782;DHT22;23621;50.878;4.584;2023-05-27T12:43:48;26.20;49.80
37782;DHT22;23621;50.878;4.584;2023-05-27T12:46:36;26.30;50.80
37782;DHT22;23621;50.878;4.584;2023-05-27T12:49:23;26.30;50.30
37782;DHT22;23621;50.878;4.584;2023-05-27T12:52:11;26.40;49.60
37782;DHT22;23621;50.878;4.584;2023-05-27T12:54:59;26.50;48.90
37782;DHT22;23621;50.878;4.584;2023-05-27T12:57:49;26.50;48.30
37782;DHT22;23621;50.878;4.584;2023-05-27T13:00:37;26.50;47.90
37782;DHT22;23621;50.878;4.584;2023-05-27T13:03:24;26.60;47.60
37782;DHT22;23621;50.878;4.584;2023-05-27T13:06:11;26.60;46.90
37782;DHT22;23621;50.878;4.584;2023-05-27T13:08:59;26.70;46.70
37782;DHT22;23621;50.878;4.584;2023-05-27T13:11:46;26.70;47.20
37782;DHT22;23621;50.878;4.584;2023-05-27T13:14:34;26.70;47.60
37782;DHT22;23621;50.878;4.584;2023-05-27T13:17:22;26.70;48.10
37782;DHT22;23621;50.878;4.584;2023-05-27T13:20:09;26.80;47.80
37782;DHT22;23621;50.878;4.584;2023-05-27T13:22:57;26.80;48.20
37782;DHT22;23621;50.878;4.584;2023-05-27T13:25:48;26.90;47.90
37782;DHT22;23621;50.878;4.584;2023-05-27T13:28:36;27.00;47.10
37782;DHT22;23621;50.878;4.584;2023-05-27T13:31:23;27.00;47.60
37782;DHT22;23621;50.878;4.584;2023-05-27T13:34:11;27.00;47.50
37782;DHT22;23621;50.878;4.584;2023-05-27T13:36:58;27.10;47.50
37782;DHT22;23621;50.878;4.584;2023-05-27T13:39:46;27.10;47.50
37782;DHT22;23621;50.878;4.584;2023-05-27T13:42:34;27.20;46.90
37782;DHT22;23621;50.878;4.584;2023-05-27T13:45:21;27.20;46.90
37782;DHT22;23621;50.878;4.584;2023-05-27T13:48:09;27.30;46.80
37782;DHT22;23621;50.878;4.584;2023-05-27T13:50:57;27.30;47.10
37782;DHT22;23621;50.878;4.584;2023-05-27T13:53:45;27.40;46.70
37782;DHT22;23621;50.878;4.584;2023-05-27T13:56:32;27.40;46.80
37782;DHT22;23621;50.878;4.584;2023-05-27T13:59:20;27.40;46.80
37782;DHT22;23621;50.878;4.584;2023-05-27T14:02:08;27.50;46.70
37782;DHT22;23621;50.878;4.584;2023-05-27T14:04:56;27.50;47.00
37782;DHT22;23621;50.878;4.584;2023-05-27T14:07:43;27.50;46.50
37782;DHT22;23621;50.878;4.584;2023-05-27T14:10:32;27.60;46.60
37782;DHT22;23621;50.878;4.584;2023-05-27T14:13:20;27.60;46.30
37782;DHT22;23621;50.878;4.584;2023-05-27T14:16:07;27.70;46.60
37782;DHT22;23621;50.878;4.584;2023-05-27T14:18:55;27.80;46.60
37782;DHT22;23621;50.878;4.584;2023-05-27T14:21:42;27.80;46.40
37782;DHT22;23621;50.878;4.584;2023-05-27T14:24:31;27.80;45.90
37782;DHT22;23621;50.878;4.584;2023-05-27T14:27:18;27.90;45.90
37782;DHT22;23621;50.878;4.584;2023-05-27T14:30:06;27.90;45.70
37782;DHT22;23621;50.878;4.584;2023-05-27T14:32:54;28.00;46.10
37782;DHT22;23621;50.878;4.584;2023-05-27T14:35:41;27.90;46.20
37782;DHT22;23621;50.878;4.584;2023-05-27T14:38:29;28.00;45.80
37782;DHT22;23621;50.878;4.584;2023-05-27T14:41:17;28.00;45.20
37782;DHT22;23621;50.878;4.584;2023-05-27T14:44:04;28.00;45.50
37782;DHT22;23621;50.878;4.584;2023-05-27T14:46:51;28.20;45.80
37782;DHT22;23621;50.878;4.584;2023-05-27T14:49:39;28.20;45.60
37782;DHT22;23621;50.878;4.584;2023-05-27T14:52:26;28.20;45.30
37782;DHT22;23621;50.878;4.584;2023-05-27T14:55:13;28.30;45.00
37782;DHT22;23621;50.878;4.584;2023-05-27T14:58:01;28.30;45.00
37782;DHT22;23621;50.878;4.584;2023-05-27T15:00:51;28.40;45.30
37782;DHT22;23621;50.878;4.584;2023-05-27T15:03:39;28.40;45.00
37782;DHT22;23621;50.878;4.584;2023-05-27T15:06:26;28.40;45.10
37782;DHT22;23621;50.878;4.584;2023-05-27T15:09:13;28.40;44.60
37782;DHT22;23621;50.878;4.584;2023-05-27T15:12:01;28.40;43.70
37782;DHT22;23621;50.878;4.584;2023-05-27T15:14:48;28.50;43.90
37782;DHT22;23621;50.878;4.584;2023-05-27T15:17:36;28.70;44.00
37782;DHT22;23621;50.878;4.584;2023-05-27T15:20:23;28.70;43.60
37782;DHT22;23621;50.878;4.584;2023-05-27T15:23:10;28.90;43.20
37782;DHT22;23621;50.878;4.584;2023-05-27T15:25:58;29.00;43.10
37782;DHT22;23621;50.878;4.584;2023-05-27T15:28:45;29.10;43.10
37782;DHT22;23621;50.878;4.584;2023-05-27T15:31:32;29.20;42.70
37782;DHT22;23621;50.878;4.584;2023-05-27T15:34:19;29.40;42.50
37782;DHT22;23621;50.878;4.584;2023-05-27T15:37:07;29.80;42.70
37782;DHT22;23621;50.878;4.584;2023-05-27T15:39:54;30.60;42.00
37782;DHT22;23621;50.878;4.584;2023-05-27T15:42:43;32.10;40.60
37782;DHT22;23621;50.878;4.584;2023-05-27T15:45:31;33.80;39.50
37782;DHT22;23621;50.878;4.584;2023-05-27T15:48:18;35.60;37.90
37782;DHT22;23621;50.878;4.584;2023-05-27T15:51:05;37.10;36.40
37782;DHT22;23621;50.878;4.584;2023-05-27T15:53:53;38.30;34.60
37782;DHT22;23621;50.878;4.584;2023-05-27T15:56:41;39.30;33.20
37782;DHT22;23621;50.878;4.584;2023-05-27T15:59:31;40.10;32.50
37782;DHT22;23621;50.878;4.584;2023-05-27T16:02:18;40.90;31.70
37782;DHT22;23621;50.878;4.584;2023-05-27T16:05:06;41.50;30.60
37782;DHT22;23621;50.878;4.584;2023-05-27T16:07:53;42.00;30.10
37782;DHT22;23621;50.878;4.584;2023-05-27T16:10:50;42.40;29.30
37782;DHT22;23621;50.878;4.584;2023-05-27T16:13:41;42.60;28.90
37782;DHT22;23621;50.878;4.584;2023-05-27T16:16:28;42.90;28.70
37782;DHT22;23621;50.878;4.584;2023-05-27T16:19:15;43.20;28.40
37782;DHT22;23621;50.878;4.584;2023-05-27T16:22:03;43.40;28.10
37782;DHT22;23621;50.878;4.584;2023-05-27T16:24:50;43.70;27.60
37782;DHT22;23621;50.878;4.584;2023-05-27T16:27:38;43.90;27.20
37782;DHT22;23621;50.878;4.584;2023-05-27T16:30:25;44.10;27.00
37782;DHT22;23621;50.878;4.584;2023-05-27T16:33:13;44.30;26.70
37782;DHT22;23621;50.878;4.584;2023-05-27T16:36:01;44.50;26.60
37782;DHT22;23621;50.878;4.584;2023-05-27T16:38:48;44.60;26.20
37782;DHT22;23621;50.878;4.584;2023-05-27T16:41:35;44.70;26.00
37782;DHT22;23621;50.878;4.584;2023-05-27T16:44:22;44.80;26.30
37782;DHT22;23621;50.878;4.584;2023-05-27T16:47:10;44.80;26.10
37782;DHT22;23621;50.878;4.584;2023-05-27T16:49:57;44.90;25.70
37782;DHT22;23621;50.878;4.584;2023-05-27T16:52:44;45.00;25.60
37782;DHT22;23621;50.878;4.584;2023-05-27T16:55:32;45.10;25.50
37782;DHT22;23621;50.878;4.584;2023-05-27T16:58:19;45.10;25.60
37782;DHT22;23621;50.878;4.584;2023-05-27T17:01:07;45.10;25.50
37782;DHT22;23621;50.878;4.584;2023-05-27T17:03:54;45.10;25.00
37782;DHT22;23621;50.878;4.584;2023-05-27T17:06:42;45.10;25.00
37782;DHT22;23621;50.878;4.584;2023-05-27T17:09:29;45.10;24.60
37782;DHT22;23621;50.878;4.584;2023-05-27T17:12:17;45.10;24.60
37782;DHT22;23621;50.878;4.584;2023-05-27T17:15:04;45.00;24.20
37782;DHT22;23621;50.878;4.584;2023-05-27T17:17:52;44.90;24.40
37782;DHT22;23621;50.878;4.584;2023-05-27T17:20:39;44.80;24.40
37782;DHT22;23621;50.878;4.584;2023-05-27T17:23:27;44.70;24.80
37782;DHT22;23621;50.878;4.584;2023-05-27T17:26:14;44.70;24.90
37782;DHT22;23621;50.878;4.584;2023-05-27T17:29:02;44.60;24.90
37782;DHT22;23621;50.878;4.584;2023-05-27T17:31:49;44.60;25.00
37782;DHT22;23621;50.878;4.584;2023-05-27T17:34:37;44.50;25.30
37782;DHT22;23621;50.878;4.584;2023-05-27T17:37:24;44.50;25.10
37782;DHT22;23621;50.878;4.584;2023-05-27T17:40:11;44.20;25.00
37782;DHT22;23621;50.878;4.584;2023-05-27T17:42:58;44.10;25.10